sensor_id;sensor_type;location;lat;lon;timestamp;temperature;humidity
14008;DHT22;61651;45.508;12.232;2023-03-05T00:02:12;10.50;99.90
14008;DHT22;61651;45.508;12.232;2023-03-05T00:05:16;10.40;99.90
14008;DHT22;61651;45.508;12.232;2023-03-05T00:08:18;10.30;99.90
14008;DHT22;61651;45.508;12.232;2023-03-05T00:11:20;10.30;99.90
14008;DHT22;61651;45.508;12.232;2023-03-05T00:14:22;10.30;99.90
14008;DHT22;61651;45.508;12.232;2023-03-05T00:17:24;10.20;99.90
14008;DHT22;61651;45.508;12.232;2023-03-05T00:20:28;10.10;99.90
14008;DHT22;61651;45.508;12.232;2023-03-05T00:23:30;10.10;99.90
14008;DHT22;61651;45.508;12.232;2023-03-05T00:26:34;10.00;99.90
14008;DHT22;61651;45.508;12.232;2023-03-05T00:29:38;10.10;99.90
14008;DHT22;61651;45.508;12.232;2023-03-05T00:32:40;10.10;99.90
14008;DHT22;61651;45.508;12.232;2023-03-05T00:35:45;10.20;99.90
14008;DHT22;61651;45.508;12.232;2023-03-05T00:38:47;10.10;99.90
14008;DHT22;61651;45.508;12.232;2023-03-05T00:41:49;10.20;99.90
14008;DHT22;61651;45.508;12.232;2023-03-05T00:44:51;10.20;99.90
14008;DHT22;61651;45.508;12.232;2023-03-05T00:47:53;10.00;99.90
14008;DHT22;61651;45.508;12.232;2023-03-05T00:50:56;10.10;99.90
14008;DHT22;61651;45.508;12.232;2023-03-05T00:53:58;10.10;99.90
14008;DHT22;61651;45.508;12.232;2023-03-05T00:57:00;10.10;99.90
14008;DHT22;61651;45.508;12.232;2023-03-05T01:00:03;10.10;99.90
14008;DHT22;61651;45.508;12.232;2023-03-05T01:03:05;10.10;99.90
14008;DHT22;61651;45.508;12.232;2023-03-05T01:06:10;10.10;99.90
14008;DHT22;61651;45.508;12.232;2023-03-05T01:09:13;10.10;99.90
14008;DHT22;61651;45.508;12.232;2023-03-05T01:12:15;10.00;99.90
14008;DHT22;61651;45.508;12.232;2023-03-05T01:15:17;10.00;99.90
14008;DHT22;61651;45.508;12.232;2023-03-05T01:18:21;10.10;99.90
14008;DHT22;61651;45.508;12.232;2023-03-05T01:21:25;10.00;99.90
14008;DHT22;61651;45.508;12.232;2023-03-05T01:24:27;9.90;99.90
14008;DHT22;61651;45.508;12.232;2023-03-05T01:27:29;10.00;99.90
14008;DHT22;61651;45.508;12.232;2023-03-05T01:30:31;10.00;99.90
14008;DHT22;61651;45.508;12.232;2023-03-05T01:33:33;10.10;99.90
14008;DHT22;61651;45.508;12.232;2023-03-05T01:36:36;10.10;99.90
14008;DHT22;61651;45.508;12.232;2023-03-05T01:39:38;10.00;99.90
14008;DHT22;61651;45.508;12.232;2023-03-05T01:42:44;10.00;99.90
14008;DHT22;61651;45.508;12.232;2023-03-05T01:49:36;9.90;99.90
14008;DHT22;61651;45.508;12.232;2023-03-05T01:52:42;9.90;99.90
14008;DHT22;61651;45.508;12.232;2023-03-05T01:55:46;9.80;99.90
14008;DHT22;61651;45.508;12.232;2023-03-05T01:58:48;9.70;99.90
14008;DHT22;61651;45.508;12.232;2023-03-05T02:01:53;9.70;99.90
14008;DHT22;61651;45.508;12.232;2023-03-05T02:04:59;9.70;99.90
14008;DHT22;61651;45.508;12.232;2023-03-05T02:08:05;9.70;99.90
14008;DHT22;61651;45.508;12.232;2023-03-05T02:11:08;9.70;99.90
14008;DHT22;61651;45.508;12.232;2023-03-05T02:14:10;9.70;99.90
14008;DHT22;61651;45.508;12.232;2023-03-05T02:17:12;9.70;99.90
14008;DHT22;61651;45.508;12.232;2023-03-05T02:20:17;9.60;99.90
14008;DHT22;61651;45.508;12.232;2023-03-05T02:23:21;9.60;99.90
14008;DHT22;61651;45.508;12.232;2023-03-05T02:26:23;9.60;99.90
14008;DHT22;61651;45.508;12.232;2023-03-05T02:29:27;9.50;99.90
14008;DHT22;61651;45.508;12.232;2023-03-05T02:32:29;9.40;99.90
14008;DHT22;61651;45.508;12.232;2023-03-05T02:35:32;9.40;99.90
14008;DHT22;61651;45.508;12.232;2023-03-05T02:38:35;9.40;99.90
14008;DHT22;61651;45.508;12.232;2023-03-05T02:41:37;9.30;99.90
14008;DHT22;61651;45.508;12.232;2023-03-05T02:44:39;9.20;99.90
14008;DHT22;61651;45.508;12.232;2023-03-05T02:47:41;9.20;99.90
14008;DHT22;61651;45.508;12.232;2023-03-05T02:50:44;9.20;99.90
14008;DHT22;61651;45.508;12.232;2023-03-05T02:53:48;9.00;99.90
14008;DHT22;61651;45.508;12.232;2023-03-05T02:56:50;9.00;99.90
14008;DHT22;61651;45.508;12.232;2023-03-05T02:59:52;9.00;99.90
14008;DHT22;61651;45.508;12.232;2023-03-05T03:02:54;9.10;99.90
14008;DHT22;61651;45.508;12.232;2023-03-05T03:05:56;8.70;99.90
14008;DHT22;61651;45.508;12.232;2023-03-05T03:08:59;8.50;99.90
14008;DHT22;61651;45.508;12.232;2023-03-05T03:12:02;8.60;99.90
14008;DHT22;61651;45.508;12.232;2023-03-05T03:15:05;8.40;99.90
14008;DHT22;61651;45.508;12.232;2023-03-05T03:18:07;8.50;99.90
14008;DHT22;61651;45.508;12.232;2023-03-05T03:21:15;8.60;99.90
14008;DHT22;61651;45.508;12.232;2023-03-05T03:24:19;8.70;99.90
14008;DHT22;61651;45.508;12.232;2023-03-05T03:27:21;8.70;99.90
14008;DHT22;61651;45.508;12.232;2023-03-05T03:30:23;8.70;99.90
14008;DHT22;61651;45.508;12.232;2023-03-05T03:33:25;8.80;99.90
14008;DHT22;61651;45.508;12.232;2023-03-05T03:36:27;8.70;99.90
14008;DHT22;61651;45.508;12.232;2023-03-05T03:39:30;8.70;99.90
14008;DHT22;61651;45.508;12.232;2023-03-05T03:42:32;8.70;99.90
14008;DHT22;61651;45.508;12.232;2023-03-05T03:45:34;8.70;99.90
14008;DHT22;61651;45.508;12.232;2023-03-05T03:48:40;8.70;99.90
14008;DHT22;61651;45.508;12.232;2023-03-05T03:51:42;8.60;99.90
14008;DHT22;61651;45.508;12.232;2023-03-05T03:54:45;8.60;99.90
14008;DHT22;61651;45.508;12.232;2023-03-05T03:57:47;8.50;99.90
14008;DHT22;61651;45.508;12.232;2023-03-05T04:00:49;8.50;99.90
14008;DHT22;61651;45.508;12.232;2023-03-05T04:03:51;8.50;99.90
14008;DHT22;61651;45.508;12.232;2023-03-05T04:06:53;8.50;99.90
14008;DHT22;61651;45.508;12.232;2023-03-05T04:09:57;8.50;99.90
14008;DHT22;61651;45.508;12.232;2023-03-05T04:12:59;8.60;99.90
14008;DHT22;61651;45.508;12.232;2023-03-05T04:16:00;8.50;99.90
14008;DHT22;61651;45.508;12.232;2023-03-05T04:19:02;8.50;99.90
14008;DHT22;61651;45.508;12.232;2023-03-05T04:22:05;8.50;99.90
14008;DHT22;61651;45.508;12.232;2023-03-05T04:25:09;8.50;99.90
14008;DHT22;61651;45.508;12.232;2023-03-05T04:28:11;8.50;99.90
14008;DHT22;61651;45.508;12.232;2023-03-05T04:31:13;8.50;99.90
14008;DHT22;61651;45.508;12.232;2023-03-05T04:34:15;8.40;99.90
14008;DHT22;61651;45.508;12.232;2023-03-05T04:37:17;8.40;99.90
14008;DHT22;61651;45.508;12.232;2023-03-05T04:40:21;8.30;99.90
14008;DHT22;61651;45.508;12.232;2023-03-05T04:43:23;8.30;99.90
14008;DHT22;61651;45.508;12.232;2023-03-05T04:46:25;8.30;99.90
14008;DHT22;61651;45.508;12.232;2023-03-05T04:49:27;8.20;99.90
14008;DHT22;61651;45.508;12.232;2023-03-05T04:52:30;8.30;99.90
14008;DHT22;61651;45.508;12.232;2023-03-05T04:55:33;8.30;99.90
14008;DHT22;61651;45.508;12.232;2023-03-05T04:58:35;8.20;99.90
14008;DHT22;61651;45.508;12.232;2023-03-05T05:01:37;8.20;99.90
14008;DHT22;61651;45.508;12.232;2023-03-05T05:04:39;8.20;99.90
14008;DHT22;61651;45.508;12.232;2023-03-05T05:07:44;8.20;99.90
14008;DHT22;61651;45.508;12.232;2023-03-05T05:10:56;8.20;99.90
14008;DHT22;61651;45.508;12.232;2023-03-05T05:13:58;8.20;99.90
14008;DHT22;61651;45.508;12.232;2023-03-05T05:17:00;8.20;99.90
14008;DHT22;61651;45.508;12.232;2023-03-05T05:20:05;8.20;99.90
14008;DHT22;61651;45.508;12.232;2023-03-05T05:23:07;8.10;99.90
14008;DHT22;61651;45.508;12.232;2023-03-05T05:26:11;8.20;99.90
14008;DHT22;61651;45.508;12.232;2023-03-05T05:29:14;8.20;99.90
14008;DHT22;61651;45.508;12.232;2023-03-05T05:32:16;8.30;99.90
14008;DHT22;61651;45.508;12.232;2023-03-05T05:35:18;8.20;99.90
14008;DHT22;61651;45.508;12.232;2023-03-05T05:38:20;8.20;99.90
14008;DHT22;61651;45.508;12.232;2023-03-05T05:41:23;8.20;99.90
14008;DHT22;61651;45.508;12.232;2023-03-05T05:44:25;8.20;99.90
14008;DHT22;61651;45.508;12.232;2023-03-05T05:47:27;8.20;99.90
14008;DHT22;61651;45.508;12.232;2023-03-05T05:50:30;8.10;99.90
14008;DHT22;61651;45.508;12.232;2023-03-05T05:53:32;8.00;99.90
14008;DHT22;61651;45.508;12.232;2023-03-05T05:56:36;7.80;99.90
14008;DHT22;61651;45.508;12.232;2023-03-05T05:59:38;7.90;99.90
14008;DHT22;61651;45.508;12.232;2023-03-05T06:02:41;8.00;99.90
14008;DHT22;61651;45.508;12.232;2023-03-05T06:05:43;8.10;99.90
14008;DHT22;61651;45.508;12.232;2023-03-05T06:08:47;8.10;99.90
14008;DHT22;61651;45.508;12.232;2023-03-05T06:11:51;8.20;99.90
14008;DHT22;61651;45.508;12.232;2023-03-05T06:14:53;8.20;99.90
14008;DHT22;61651;45.508;12.232;2023-03-05T06:17:55;8.20;99.90
14008;DHT22;61651;45.508;12.232;2023-03-05T06:20:58;8.20;99.90
14008;DHT22;61651;45.508;12.232;2023-03-05T06:24:00;8.20;99.90
14008;DHT22;61651;45.508;12.232;2023-03-05T06:27:04;8.20;99.90
14008;DHT22;61651;45.508;12.232;2023-03-05T06:30:09;8.20;99.90
14008;DHT22;61651;45.508;12.232;2023-03-05T06:33:11;8.20;99.90
14008;DHT22;61651;45.508;12.232;2023-03-05T06:36:15;8.30;99.90
14008;DHT22;61651;45.508;12.232;2023-03-05T06:39:17;8.30;99.90
14008;DHT22;61651;45.508;12.232;2023-03-05T06:42:21;8.30;99.90
14008;DHT22;61651;45.508;12.232;2023-03-05T06:45:23;8.30;99.90
14008;DHT22;61651;45.508;12.232;2023-03-05T06:48:25;8.40;99.90
14008;DHT22;61651;45.508;12.232;2023-03-05T06:51:28;8.40;99.90
14008;DHT22;61651;45.508;12.232;2023-03-05T06:54:31;8.40;99.90
14008;DHT22;61651;45.508;12.232;2023-03-05T06:57:35;8.50;99.90
14008;DHT22;61651;45.508;12.232;2023-03-05T07:00:37;8.50;99.90
14008;DHT22;61651;45.508;12.232;2023-03-05T07:03:40;8.60;99.90
14008;DHT22;61651;45.508;12.232;2023-03-05T07:06:42;8.60;99.90
14008;DHT22;61651;45.508;12.232;2023-03-05T07:09:44;8.80;99.90
14008;DHT22;61651;45.508;12.232;2023-03-05T07:12:51;8.80;99.90
14008;DHT22;61651;45.508;12.232;2023-03-05T07:15:53;9.00;99.90
14008;DHT22;61651;45.508;12.232;2023-03-05T07:18:56;9.00;99.90
14008;DHT22;61651;45.508;12.232;2023-03-05T07:21:58;9.10;99.90
14008;DHT22;61651;45.508;12.232;2023-03-05T07:25:00;9.20;99.90
14008;DHT22;61651;45.508;12.232;2023-03-05T07:28:04;9.20;99.90
14008;DHT22;61651;45.508;12.232;2023-03-05T07:31:09;9.30;99.90
14008;DHT22;61651;45.508;12.232;2023-03-05T07:34:12;9.40;99.90
14008;DHT22;61651;45.508;12.232;2023-03-05T07:37:14;9.50;99.90
14008;DHT22;61651;45.508;12.232;2023-03-05T07:40:16;9.70;99.90
14008;DHT22;61651;45.508;12.232;2023-03-05T07:43:20;9.80;99.90
14008;DHT22;61651;45.508;12.232;2023-03-05T07:46:25;9.90;99.90
14008;DHT22;61651;45.508;12.232;2023-03-05T07:49:27;10.00;99.90
14008;DHT22;61651;45.508;12.232;2023-03-05T07:52:29;10.10;99.90
14008;DHT22;61651;45.508;12.232;2023-03-05T07:55:31;10.20;99.90
14008;DHT22;61651;45.508;12.232;2023-03-05T07:58:35;10.30;99.90
14008;DHT22;61651;45.508;12.232;2023-03-05T08:01:37;10.40;99.90
14008;DHT22;61651;45.508;12.232;2023-03-05T08:04:39;10.40;99.90
14008;DHT22;61651;45.508;12.232;2023-03-05T08:11:26;10.50;99.90
14008;DHT22;61651;45.508;12.232;2023-03-05T08:14:30;10.70;99.90
14008;DHT22;61651;45.508;12.232;2023-03-05T08:20:49;10.90;99.90
14008;DHT22;61651;45.508;12.232;2023-03-05T08:23:51;11.00;99.90
14008;DHT22;61651;45.508;12.232;2023-03-05T08:26:54;11.10;99.90
14008;DHT22;61651;45.508;12.232;2023-03-05T08:29:59;11.10;99.90
14008;DHT22;61651;45.508;12.232;2023-03-05T08:33:01;11.30;99.90
14008;DHT22;61651;45.508;12.232;2023-03-05T08:36:04;11.40;99.90
14008;DHT22;61651;45.508;12.232;2023-03-05T08:39:06;11.50;99.90
14008;DHT22;61651;45.508;12.232;2023-03-05T08:42:09;11.60;99.90
14008;DHT22;61651;45.508;12.232;2023-03-05T08:45:12;11.70;99.90
14008;DHT22;61651;45.508;12.232;2023-03-05T08:48:14;11.80;99.90
14008;DHT22;61651;45.508;12.232;2023-03-05T08:51:19;11.80;99.90
14008;DHT22;61651;45.508;12.232;2023-03-05T08:54:21;12.00;99.90
14008;DHT22;61651;45.508;12.232;2023-03-05T08:57:23;12.20;99.90
14008;DHT22;61651;45.508;12.232;2023-03-05T09:00:34;12.30;99.90
14008;DHT22;61651;45.508;12.232;2023-03-05T09:03:36;12.40;99.90
14008;DHT22;61651;45.508;12.232;2023-03-05T09:06:38;12.50;99.90
14008;DHT22;61651;45.508;12.232;2023-03-05T09:09:40;12.60;99.90
14008;DHT22;61651;45.508;12.232;2023-03-05T09:12:42;12.70;99.90
14008;DHT22;61651;45.508;12.232;2023-03-05T09:15:53;12.80;99.90
14008;DHT22;61651;45.508;12.232;2023-03-05T09:18:55;12.90;99.90
14008;DHT22;61651;45.508;12.232;2023-03-05T09:21:57;13.00;99.90
14008;DHT22;61651;45.508;12.232;2023-03-05T09:24:59;13.10;99.90
14008;DHT22;61651;45.508;12.232;2023-03-05T09:28:00;13.20;99.90
14008;DHT22;61651;45.508;12.232;2023-03-05T09:31:05;13.20;99.90
14008;DHT22;61651;45.508;12.232;2023-03-05T09:34:09;13.30;99.90
14008;DHT22;61651;45.508;12.232;2023-03-05T09:37:11;13.40;99.90
14008;DHT22;61651;45.508;12.232;2023-03-05T09:40:15;13.50;99.90
14008;DHT22;61651;45.508;12.232;2023-03-05T09:43:28;13.50;99.90
14008;DHT22;61651;45.508;12.232;2023-03-05T09:46:38;13.60;99.90
14008;DHT22;61651;45.508;12.232;2023-03-05T09:49:51;13.80;99.90
14008;DHT22;61651;45.508;12.232;2023-03-05T09:53:00;13.90;99.90
14008;DHT22;61651;45.508;12.232;2023-03-05T09:56:08;14.00;99.90
14008;DHT22;61651;45.508;12.232;2023-03-05T09:59:22;14.10;99.90
14008;DHT22;61651;45.508;12.232;2023-03-05T10:02:31;14.10;99.90
14008;DHT22;61651;45.508;12.232;2023-03-05T10:05:47;14.20;99.90
14008;DHT22;61651;45.508;12.232;2023-03-05T10:08:54;14.20;99.90
14008;DHT22;61651;45.508;12.232;2023-03-05T10:11:58;14.20;99.90
14008;DHT22;61651;45.508;12.232;2023-03-05T10:15:01;14.40;99.90
14008;DHT22;61651;45.508;12.232;2023-03-05T10:18:12;14.50;99.90
14008;DHT22;61651;45.508;12.232;2023-03-05T10:21:20;14.50;99.90
14008;DHT22;61651;45.508;12.232;2023-03-05T10:24:33;14.60;99.90
14008;DHT22;61651;45.508;12.232;2023-03-05T10:27:46;14.70;99.90
14008;DHT22;61651;45.508;12.232;2023-03-05T10:31:03;14.80;99.90
14008;DHT22;61651;45.508;12.232;2023-03-05T10:34:31;15.00;99.90
14008;DHT22;61651;45.508;12.232;2023-03-05T10:37:54;15.10;99.90
14008;DHT22;61651;45.508;12.232;2023-03-05T10:41:01;14.90;99.90
14008;DHT22;61651;45.508;12.232;2023-03-05T10:44:11;15.00;99.90
14008;DHT22;61651;45.508;12.232;2023-03-05T10:47:22;15.20;99.90
14008;DHT22;61651;45.508;12.232;2023-03-05T10:50:29;15.40;99.90
14008;DHT22;61651;45.508;12.232;2023-03-05T10:53:35;15.50;99.90
14008;DHT22;61651;45.508;12.232;2023-03-05T10:56:38;15.70;99.90
14008;DHT22;61651;45.508;12.232;2023-03-05T10:59:43;15.70;99.90
14008;DHT22;61651;45.508;12.232;2023-03-05T11:02:56;15.80;99.90
14008;DHT22;61651;45.508;12.232;2023-03-05T11:06:01;15.90;99.90
14008;DHT22;61651;45.508;12.232;2023-03-05T11:09:19;16.00;99.90
14008;DHT22;61651;45.508;12.232;2023-03-05T11:12:26;16.00;99.90
14008;DHT22;61651;45.508;12.232;2023-03-05T11:15:29;16.10;99.90
14008;DHT22;61651;45.508;12.232;2023-03-05T11:18:31;16.20;99.90
14008;DHT22;61651;45.508;12.232;2023-03-05T11:21:36;16.30;99.90
14008;DHT22;61651;45.508;12.232;2023-03-05T11:24:38;16.30;99.90
14008;DHT22;61651;45.508;12.232;2023-03-05T11:27:48;16.40;99.90
14008;DHT22;61651;45.508;12.232;2023-03-05T11:30:57;16.60;99.90
14008;DHT22;61651;45.508;12.232;2023-03-05T11:34:02;16.80;99.90
14008;DHT22;61651;45.508;12.232;2023-03-05T11:37:09;16.90;99.90
14008;DHT22;61651;45.508;12.232;2023-03-05T11:40:21;17.00;99.90
14008;DHT22;61651;45.508;12.232;2023-03-05T11:43:25;17.10;99.90
14008;DHT22;61651;45.508;12.232;2023-03-05T11:46:28;17.20;99.90
14008;DHT22;61651;45.508;12.232;2023-03-05T11:49:30;17.30;99.90
14008;DHT22;61651;45.508;12.232;2023-03-05T11:52:41;17.40;99.90
14008;DHT22;61651;45.508;12.232;2023-03-05T11:55:48;17.50;99.90
14008;DHT22;61651;45.508;12.232;2023-03-05T11:58:53;17.60;99.90
14008;DHT22;61651;45.508;12.232;2023-03-05T12:01:58;17.70;99.90
14008;DHT22;61651;45.508;12.232;2023-03-05T12:05:00;17.80;99.90
14008;DHT22;61651;45.508;12.232;2023-03-05T12:08:10;17.90;99.90
14008;DHT22;61651;45.508;12.232;2023-03-05T12:11:17;18.00;99.90
14008;DHT22;61651;45.508;12.232;2023-03-05T12:14:23;18.10;99.90
14008;DHT22;61651;45.508;12.232;2023-03-05T12:17:30;18.20;99.90
14008;DHT22;61651;45.508;12.232;2023-03-05T12:20:39;18.20;99.90
14008;DHT22;61651;45.508;12.232;2023-03-05T12:23:46;18.30;99.90
14008;DHT22;61651;45.508;12.232;2023-03-05T12:27:04;18.30;99.90
14008;DHT22;61651;45.508;12.232;2023-03-05T12:33:48;18.30;99.90
14008;DHT22;61651;45.508;12.232;2023-03-05T12:36:50;18.40;99.90
14008;DHT22;61651;45.508;12.232;2023-03-05T12:39:58;18.40;99.90
14008;DHT22;61651;45.508;12.232;2023-03-05T12:43:04;18.50;99.90
14008;DHT22;61651;45.508;12.232;2023-03-05T12:46:23;18.60;99.90
14008;DHT22;61651;45.508;12.232;2023-03-05T12:49:28;18.70;99.90
14008;DHT22;61651;45.508;12.232;2023-03-05T12:52:32;18.80;99.90
14008;DHT22;61651;45.508;12.232;2023-03-05T12:55:37;18.90;99.90
14008;DHT22;61651;45.508;12.232;2023-03-05T12:58:48;18.90;99.90
14008;DHT22;61651;45.508;12.232;2023-03-05T13:01:53;19.00;99.90
14008;DHT22;61651;45.508;12.232;2023-03-05T13:05:01;19.00;99.90
14008;DHT22;61651;45.508;12.232;2023-03-05T13:08:10;19.10;99.90
14008;DHT22;61651;45.508;12.232;2023-03-05T13:11:19;19.20;99.90
14008;DHT22;61651;45.508;12.232;2023-03-05T13:14:36;19.30;99.90
14008;DHT22;61651;45.508;12.232;2023-03-05T13:17:41;19.50;99.90
14008;DHT22;61651;45.508;12.232;2023-03-05T13:21:00;19.70;99.90
14008;DHT22;61651;45.508;12.232;2023-03-05T13:24:14;19.90;99.90
14008;DHT22;61651;45.508;12.232;2023-03-05T13:27:23;20.00;99.90
14008;DHT22;61651;45.508;12.232;2023-03-05T13:30:31;20.30;99.90
14008;DHT22;61651;45.508;12.232;2023-03-05T13:33:34;20.40;99.90
14008;DHT22;61651;45.508;12.232;2023-03-05T13:36:37;20.50;99.90
14008;DHT22;61651;45.508;12.232;2023-03-05T13:39:42;20.70;99.90
14008;DHT22;61651;45.508;12.232;2023-03-05T13:42:46;20.80;99.90
14008;DHT22;61651;45.508;12.232;2023-03-05T13:45:53;20.90;99.90
14008;DHT22;61651;45.508;12.232;2023-03-05T13:48:56;21.00;99.90
14008;DHT22;61651;45.508;12.232;2023-03-05T13:51:58;21.10;99.30
14008;DHT22;61651;45.508;12.232;2023-03-05T13:55:02;21.20;98.90
14008;DHT22;61651;45.508;12.232;2023-03-05T13:58:44;21.30;99.20
14008;DHT22;61651;45.508;12.232;2023-03-05T14:01:49;21.60;99.50
14008;DHT22;61651;45.508;12.232;2023-03-05T14:04:52;21.80;99.10
14008;DHT22;61651;45.508;12.232;2023-03-05T14:07:54;22.00;99.30
14008;DHT22;61651;45.508;12.232;2023-03-05T14:10:57;22.20;98.80
14008;DHT22;61651;45.508;12.232;2023-03-05T14:14:08;22.40;98.50
14008;DHT22;61651;45.508;12.232;2023-03-05T14:17:34;22.60;98.60
14008;DHT22;61651;45.508;12.232;2023-03-05T14:20:37;22.90;98.10
14008;DHT22;61651;45.508;12.232;2023-03-05T14:23:41;22.90;97.90
14008;DHT22;61651;45.508;12.232;2023-03-05T14:26:48;23.00;97.60
14008;DHT22;61651;45.508;12.232;2023-03-05T14:29:54;23.00;96.40
14008;DHT22;61651;45.508;12.232;2023-03-05T14:32:57;22.90;95.70
14008;DHT22;61651;45.508;12.232;2023-03-05T14:36:00;22.80;95.80
14008;DHT22;61651;45.508;12.232;2023-03-05T14:39:03;22.80;96.50
14008;DHT22;61651;45.508;12.232;2023-03-05T14:42:27;22.80;96.10
14008;DHT22;61651;45.508;12.232;2023-03-05T14:45:32;22.90;96.40
14008;DHT22;61651;45.508;12.232;2023-03-05T14:48:36;22.80;96.60
14008;DHT22;61651;45.508;12.232;2023-03-05T14:51:40;22.80;96.60
14008;DHT22;61651;45.508;12.232;2023-03-05T14:54:42;22.80;96.40
14008;DHT22;61651;45.508;12.232;2023-03-05T14:57:45;22.80;95.10
14008;DHT22;61651;45.508;12.232;2023-03-05T15:00:49;22.70;94.50
14008;DHT22;61651;45.508;12.232;2023-03-05T15:03:51;22.50;94.10
14008;DHT22;61651;45.508;12.232;2023-03-05T15:06:53;22.40;94.10
14008;DHT22;61651;45.508;12.232;2023-03-05T15:09:55;22.20;94.40
14008;DHT22;61651;45.508;12.232;2023-03-05T15:12:57;22.10;94.50
14008;DHT22;61651;45.508;12.232;2023-03-05T15:16:01;21.80;94.50
14008;DHT22;61651;45.508;12.232;2023-03-05T15:19:03;21.60;94.40
14008;DHT22;61651;45.508;12.232;2023-03-05T15:22:05;21.40;94.60
14008;DHT22;61651;45.508;12.232;2023-03-05T15:25:07;21.30;94.80
14008;DHT22;61651;45.508;12.232;2023-03-05T15:28:10;21.30;94.70
14008;DHT22;61651;45.508;12.232;2023-03-05T15:31:15;21.20;94.60
14008;DHT22;61651;45.508;12.232;2023-03-05T15:34:17;21.30;94.90
14008;DHT22;61651;45.508;12.232;2023-03-05T15:37:19;21.30;94.50
14008;DHT22;61651;45.508;12.232;2023-03-05T15:40:21;21.10;94.40
14008;DHT22;61651;45.508;12.232;2023-03-05T15:43:24;20.90;94.90
14008;DHT22;61651;45.508;12.232;2023-03-05T15:46:27;20.70;95.10
14008;DHT22;61651;45.508;12.232;2023-03-05T15:49:29;20.40;95.20
14008;DHT22;61651;45.508;12.232;2023-03-05T15:52:31;20.20;96.20
14008;DHT22;61651;45.508;12.232;2023-03-05T15:55:36;19.90;95.80
14008;DHT22;61651;45.508;12.232;2023-03-05T15:58:39;19.70;96.60
14008;DHT22;61651;45.508;12.232;2023-03-05T16:01:48;19.50;96.80
14008;DHT22;61651;45.508;12.232;2023-03-05T16:04:50;19.30;97.00
14008;DHT22;61651;45.508;12.232;2023-03-05T16:07:53;19.20;97.20
14008;DHT22;61651;45.508;12.232;2023-03-05T16:10:55;19.10;97.00
14008;DHT22;61651;45.508;12.232;2023-03-05T16:13:57;18.90;97.10
14008;DHT22;61651;45.508;12.232;2023-03-05T16:17:03;18.60;97.20
14008;DHT22;61651;45.508;12.232;2023-03-05T16:20:07;18.30;97.70
14008;DHT22;61651;45.508;12.232;2023-03-05T16:23:09;18.00;98.60
14008;DHT22;61651;45.508;12.232;2023-03-05T16:26:11;17.70;99.30
14008;DHT22;61651;45.508;12.232;2023-03-05T16:29:13;17.50;99.90
14008;DHT22;61651;45.508;12.232;2023-03-05T16:32:17;17.30;99.90
14008;DHT22;61651;45.508;12.232;2023-03-05T16:35:19;17.10;99.90
14008;DHT22;61651;45.508;12.232;2023-03-05T16:38:21;17.00;99.90
14008;DHT22;61651;45.508;12.232;2023-03-05T16:41:23;16.90;99.90
14008;DHT22;61651;45.508;12.232;2023-03-05T16:44:25;16.70;99.90
14008;DHT22;61651;45.508;12.232;2023-03-05T16:47:29;16.60;99.90
14008;DHT22;61651;45.508;12.232;2023-03-05T16:50:31;16.50;99.90
14008;DHT22;61651;45.508;12.232;2023-03-05T16:53:33;16.30;99.90
14008;DHT22;61651;45.508;12.232;2023-03-05T16:56:35;16.10;99.90
14008;DHT22;61651;45.508;12.232;2023-03-05T16:59:38;15.90;99.90
14008;DHT22;61651;45.508;12.232;2023-03-05T17:02:41;15.80;99.90
14008;DHT22;61651;45.508;12.232;2023-03-05T17:05:45;15.70;99.90
14008;DHT22;61651;45.508;12.232;2023-03-05T17:08:48;15.50;99.90
14008;DHT22;61651;45.508;12.232;2023-03-05T17:11:51;15.30;99.90
14008;DHT22;61651;45.508;12.232;2023-03-05T17:14:53;15.30;99.90
14008;DHT22;61651;45.508;12.232;2023-03-05T17:17:56;15.20;99.90
14008;DHT22;61651;45.508;12.232;2023-03-05T17:21:00;15.10;99.90
14008;DHT22;61651;45.508;12.232;2023-03-05T17:24:02;15.10;99.90
14008;DHT22;61651;45.508;12.232;2023-03-05T17:27:04;15.00;99.90
14008;DHT22;61651;45.508;12.232;2023-03-05T17:30:07;15.00;99.90
14008;DHT22;61651;45.508;12.232;2023-03-05T17:33:11;14.90;99.90
14008;DHT22;61651;45.508;12.232;2023-03-05T17:36:15;14.90;99.90
14008;DHT22;61651;45.508;12.232;2023-03-05T17:39:17;14.80;99.90
14008;DHT22;61651;45.508;12.232;2023-03-05T17:42:19;14.70;99.90
14008;DHT22;61651;45.508;12.232;2023-03-05T17:45:21;14.70;99.90
14008;DHT22;61651;45.508;12.232;2023-03-05T17:48:25;14.60;99.90
14008;DHT22;61651;45.508;12.232;2023-03-05T17:51:27;14.50;99.90
14008;DHT22;61651;45.508;12.232;2023-03-05T17:54:29;14.50;99.90
14008;DHT22;61651;45.508;12.232;2023-03-05T17:57:31;14.40;99.90
14008;DHT22;61651;45.508;12.232;2023-03-05T18:00:33;14.40;99.90
14008;DHT22;61651;45.508;12.232;2023-03-05T18:03:38;14.30;99.90
14008;DHT22;61651;45.508;12.232;2023-03-05T18:06:40;14.20;99.90
14008;DHT22;61651;45.508;12.232;2023-03-05T18:09:42;14.20;99.90
14008;DHT22;61651;45.508;12.232;2023-03-05T18:12:44;14.10;99.90
14008;DHT22;61651;45.508;12.232;2023-03-05T18:15:46;14.10;99.90
14008;DHT22;61651;45.508;12.232;2023-03-05T18:18:49;14.00;99.90
14008;DHT22;61651;45.508;12.232;2023-03-05T18:21:51;14.00;99.90
14008;DHT22;61651;45.508;12.232;2023-03-05T18:24:53;13.90;99.90
14008;DHT22;61651;45.508;12.232;2023-03-05T18:27:56;13.90;99.90
14008;DHT22;61651;45.508;12.232;2023-03-05T18:30:58;13.80;99.90
14008;DHT22;61651;45.508;12.232;2023-03-05T18:34:01;13.70;99.90
14008;DHT22;61651;45.508;12.232;2023-03-05T18:37:03;13.60;99.90
14008;DHT22;61651;45.508;12.232;2023-03-05T18:40:07;13.60;99.90
14008;DHT22;61651;45.508;12.232;2023-03-05T18:43:10;13.60;99.90
14008;DHT22;61651;45.508;12.232;2023-03-05T18:46:12;13.60;99.90
14008;DHT22;61651;45.508;12.232;2023-03-05T18:49:15;13.60;99.90
14008;DHT22;61651;45.508;12.232;2023-03-05T18:52:17;13.60;99.90
14008;DHT22;61651;45.508;12.232;2023-03-05T18:55:22;13.60;99.90
14008;DHT22;61651;45.508;12.232;2023-03-05T18:58:24;13.60;99.90
14008;DHT22;61651;45.508;12.232;2023-03-05T19:01:26;13.60;99.90
14008;DHT22;61651;45.508;12.232;2023-03-05T19:04:29;13.60;99.90
14008;DHT22;61651;45.508;12.232;2023-03-05T19:07:31;13.60;99.90
14008;DHT22;61651;45.508;12.232;2023-03-05T19:10:34;13.40;99.90
14008;DHT22;61651;45.508;12.232;2023-03-05T19:13:36;13.30;99.90
14008;DHT22;61651;45.508;12.232;2023-03-05T19:16:40;13.20;99.90
14008;DHT22;61651;45.508;12.232;2023-03-05T19:19:49;12.90;99.90
14008;DHT22;61651;45.508;12.232;2023-03-05T19:22:51;13.00;99.90
14008;DHT22;61651;45.508;12.232;2023-03-05T19:25:55;13.10;99.90